Главная страница
METAR-TAF:

METAR-TAF

Аэропорты :

Key Lake, Саскачеван, Канада

широта: 57-15N, долгота: 105-37W, высота над уровнем моря: 509 м

Текущие метеонаблюдения

Эта сводка был подготовлена 21 минут назад, в 03:54 UTC
Ветер 3 Узел от южный-юго-западный
Температура -18°C
Влажность 71%
Давление 1015 hPa
Видимость: 14.5 км
Рассеянная облачность на высоте 1800 фута

METAR: CYKJ 230354Z AUTO 21003KT 9SM BKN018 M18/M22 A2997 RMK SLP205

Время: 22:15 (04:15 UTC)

Прогноз

Эта сводка был подготовлена 9 часа и 37 минут назад, в 18:38 UTC
Прогноз действительный с 22-го 19 UTC до 22-го 24 UTC
Ветер 15 Узел от северо-западный с порывами до 25 Узел
Видимость: 10 км
небольшая облачность на высоте 3000 фута
Отдельные облака на высоте 25000 фута
изменения
С 22-го 22 UTC до 22-го 24 UTC
Ветер 10 Узел от западный

TAF: CYKJ 221838Z 2219/2224 31015G25KT P6SM FEW030 SCT250 BECMG 2222/2224 28010KT RMK FCST BASED ON AUTO OBS. NXT FCST WILL BE ISSUED AT 230945Z

Метеонаблюдения и прогнозы для более 4000 аэропортов (сводки METAR и TAF).

Имеющиеся станции представлены на карте желтыми и красными точками.

Чтобы увидеть название станции, наведите на нее мышь.

Затем щелкните, чтобы увидеть метеонаблюдения и метеопрогнозы.

Управление картой: чтобы увеличить масштаб, щелкните зеленые кнопки с черным крестиком; чтобы уменьшить масштаб, щелкните зеленую кнопку с тире; для просмотра соседних карт щелкайте зеленые стрелки.


METAR-TAF: